aviador You're here:

PATQ Decoded Metar

ATQASUK BURNELL in AK, USA
Report Time2017-09-20 06:56:00
UTC Time2017-09-20 07:38:18
Flight Rules vfr VFR
Wind060° at 03 kt
W.Decomp.*RWY 06: 2.8 kt HW 1 kt LCW
W.Rank060° ranks 4
Current wind is below 060° avg. (10.8)
Visibility9999 m
Phenomena:N/A
Clouds:N/A
Expected CloudBase > 400 ft AGL from Temp-Dew spread
CeilingNone
Temp-1°C (ISA -16)
Dew Point-2°C (93% RH)
AAT-4.3°C
QNH1022 hPa
Density Alt-2,077 ft
Elevation95 ft
Report Wrong Elevation
Raw Report
PATQ 200656Z AUTO 06003KT 10SM CLR M01/M02 A3018=

Extra information for PATQ:More info

Metar Taf Metar & Taf Last 4 Metars F.Rules Stats Wind Profile Meteogram Temp Stats Airport Information Weather charts Add Link Nearby VenuesMetar ALERT Operation Metar Decoded Social comments

AIRNAV info for PATQ